sensor_id;sensor_type;location;lat;lon;timestamp;P1;durP1;ratioP1;P2;durP2;ratioP2
21741;SDS011;11033;47.490;11.116;2023-08-06T00:02:14;6.03;;;5.30;;
21741;SDS011;11033;47.490;11.116;2023-08-06T00:04:39;5.43;;;4.93;;
21741;SDS011;11033;47.490;11.116;2023-08-06T00:07:04;6.27;;;5.67;;
21741;SDS011;11033;47.490;11.116;2023-08-06T00:09:29;5.93;;;5.37;;
21741;SDS011;11033;47.490;11.116;2023-08-06T00:11:54;9.90;;;5.77;;
21741;SDS011;11033;47.490;11.116;2023-08-06T00:14:20;5.70;;;5.03;;
21741;SDS011;11033;47.490;11.116;2023-08-06T00:16:45;5.90;;;5.27;;
21741;SDS011;11033;47.490;11.116;2023-08-06T00:19:10;8.03;;;5.77;;
21741;SDS011;11033;47.490;11.116;2023-08-06T00:21:35;6.22;;;5.25;;
21741;SDS011;11033;47.490;11.116;2023-08-06T00:24:00;5.40;;;4.90;;
21741;SDS011;11033;47.490;11.116;2023-08-06T00:26:26;7.57;;;4.70;;
21741;SDS011;11033;47.490;11.116;2023-08-06T00:28:51;6.07;;;5.47;;
21741;SDS011;11033;47.490;11.116;2023-08-06T00:31:16;10.13;;;5.25;;
21741;SDS011;11033;47.490;11.116;2023-08-06T00:33:41;5.73;;;5.23;;
21741;SDS011;11033;47.490;11.116;2023-08-06T00:36:07;5.97;;;4.73;;
21741;SDS011;11033;47.490;11.116;2023-08-06T00:38:32;7.83;;;5.33;;
21741;SDS011;11033;47.490;11.116;2023-08-06T00:40:57;7.23;;;4.53;;
21741;SDS011;11033;47.490;11.116;2023-08-06T00:43:22;5.27;;;4.77;;
21741;SDS011;11033;47.490;11.116;2023-08-06T00:45:47;6.57;;;5.10;;
21741;SDS011;11033;47.490;11.116;2023-08-06T00:48:12;5.53;;;5.03;;
21741;SDS011;11033;47.490;11.116;2023-08-06T00:50:38;6.83;;;5.40;;
21741;SDS011;11033;47.490;11.116;2023-08-06T00:53:03;6.87;;;4.60;;
21741;SDS011;11033;47.490;11.116;2023-08-06T00:55:28;6.47;;;4.70;;
21741;SDS011;11033;47.490;11.116;2023-08-06T00:57:54;6.05;;;5.22;;
21741;SDS011;11033;47.490;11.116;2023-08-06T01:00:21;7.53;;;4.93;;
21741;SDS011;11033;47.490;11.116;2023-08-06T01:02:48;11.15;;;5.82;;
21741;SDS011;11033;47.490;11.116;2023-08-06T01:05:13;10.43;;;5.05;;
21741;SDS011;11033;47.490;11.116;2023-08-06T01:10:21;6.33;;;5.13;;
21741;SDS011;11033;47.490;11.116;2023-08-06T01:12:52;6.10;;;5.50;;
21741;SDS011;11033;47.490;11.116;2023-08-06T01:15:30;5.78;;;5.18;;
21741;SDS011;11033;47.490;11.116;2023-08-06T01:17:56;5.20;;;4.72;;
21741;SDS011;11033;47.490;11.116;2023-08-06T01:20:22;5.88;;;4.82;;
21741;SDS011;11033;47.490;11.116;2023-08-06T01:22:47;9.37;;;6.20;;
21741;SDS011;11033;47.490;11.116;2023-08-06T01:25:13;6.47;;;5.87;;
21741;SDS011;11033;47.490;11.116;2023-08-06T01:30:11;8.88;;;5.40;;
21741;SDS011;11033;47.490;11.116;2023-08-06T01:32:37;6.68;;;5.30;;
21741;SDS011;11033;47.490;11.116;2023-08-06T01:35:04;7.07;;;4.90;;
21741;SDS011;11033;47.490;11.116;2023-08-06T01:37:29;6.22;;;4.93;;
21741;SDS011;11033;47.490;11.116;2023-08-06T01:39:54;5.97;;;5.30;;
21741;SDS011;11033;47.490;11.116;2023-08-06T01:42:20;14.40;;;6.27;;
21741;SDS011;11033;47.490;11.116;2023-08-06T01:44:45;8.40;;;5.05;;
21741;SDS011;11033;47.490;11.116;2023-08-06T01:47:10;8.83;;;5.87;;
21741;SDS011;11033;47.490;11.116;2023-08-06T01:49:35;9.33;;;6.23;;
21741;SDS011;11033;47.490;11.116;2023-08-06T01:52:00;6.40;;;4.50;;
21741;SDS011;11033;47.490;11.116;2023-08-06T01:54:26;6.15;;;4.45;;
21741;SDS011;11033;47.490;11.116;2023-08-06T01:56:51;8.43;;;4.60;;
21741;SDS011;11033;47.490;11.116;2023-08-06T01:59:16;7.87;;;5.00;;
21741;SDS011;11033;47.490;11.116;2023-08-06T02:01:41;6.30;;;4.33;;
21741;SDS011;11033;47.490;11.116;2023-08-06T02:04:06;6.10;;;5.30;;
21741;SDS011;11033;47.490;11.116;2023-08-06T02:06:32;6.50;;;5.53;;
21741;SDS011;11033;47.490;11.116;2023-08-06T02:08:57;5.60;;;4.87;;
21741;SDS011;11033;47.490;11.116;2023-08-06T02:11:22;5.30;;;4.77;;
21741;SDS011;11033;47.490;11.116;2023-08-06T02:13:47;5.22;;;4.40;;
21741;SDS011;11033;47.490;11.116;2023-08-06T02:16:12;5.73;;;5.00;;
21741;SDS011;11033;47.490;11.116;2023-08-06T02:18:38;6.23;;;4.93;;
21741;SDS011;11033;47.490;11.116;2023-08-06T02:21:03;7.13;;;4.20;;
21741;SDS011;11033;47.490;11.116;2023-08-06T02:23:28;5.73;;;4.93;;
21741;SDS011;11033;47.490;11.116;2023-08-06T02:26:00;6.73;;;4.70;;
21741;SDS011;11033;47.490;11.116;2023-08-06T02:28:25;4.40;;;4.00;;
21741;SDS011;11033;47.490;11.116;2023-08-06T02:30:51;6.47;;;4.70;;
21741;SDS011;11033;47.490;11.116;2023-08-06T02:33:16;6.53;;;5.07;;
21741;SDS011;11033;47.490;11.116;2023-08-06T02:35:41;7.57;;;4.63;;
21741;SDS011;11033;47.490;11.116;2023-08-06T02:38:06;6.70;;;5.73;;
21741;SDS011;11033;47.490;11.116;2023-08-06T02:40:31;5.57;;;4.13;;
21741;SDS011;11033;47.490;11.116;2023-08-06T02:42:57;6.90;;;4.50;;
21741;SDS011;11033;47.490;11.116;2023-08-06T02:45:22;6.77;;;4.43;;
21741;SDS011;11033;47.490;11.116;2023-08-06T02:47:47;5.20;;;4.70;;
21741;SDS011;11033;47.490;11.116;2023-08-06T02:50:12;6.50;;;4.77;;
21741;SDS011;11033;47.490;11.116;2023-08-06T02:52:37;5.20;;;4.63;;
21741;SDS011;11033;47.490;11.116;2023-08-06T02:55:05;5.30;;;4.57;;
21741;SDS011;11033;47.490;11.116;2023-08-06T02:57:30;9.45;;;5.00;;
21741;SDS011;11033;47.490;11.116;2023-08-06T02:59:55;8.07;;;4.73;;
21741;SDS011;11033;47.490;11.116;2023-08-06T03:02:20;6.82;;;5.25;;
21741;SDS011;11033;47.490;11.116;2023-08-06T03:04:45;5.50;;;3.83;;
21741;SDS011;11033;47.490;11.116;2023-08-06T03:07:10;3.63;;;3.27;;
21741;SDS011;11033;47.490;11.116;2023-08-06T03:09:36;4.07;;;3.67;;
21741;SDS011;11033;47.490;11.116;2023-08-06T03:12:01;5.07;;;4.47;;
21741;SDS011;11033;47.490;11.116;2023-08-06T03:14:26;5.00;;;4.40;;
21741;SDS011;11033;47.490;11.116;2023-08-06T03:16:52;4.97;;;4.00;;
21741;SDS011;11033;47.490;11.116;2023-08-06T03:19:17;5.63;;;3.43;;
21741;SDS011;11033;47.490;11.116;2023-08-06T03:21:42;5.93;;;4.10;;
21741;SDS011;11033;47.490;11.116;2023-08-06T03:24:07;3.87;;;3.57;;
21741;SDS011;11033;47.490;11.116;2023-08-06T03:26:32;7.40;;;3.77;;
21741;SDS011;11033;47.490;11.116;2023-08-06T03:28:57;5.13;;;4.07;;
21741;SDS011;11033;47.490;11.116;2023-08-06T03:31:23;7.70;;;3.20;;
21741;SDS011;11033;47.490;11.116;2023-08-06T03:33:48;4.33;;;3.73;;
21741;SDS011;11033;47.490;11.116;2023-08-06T03:36:13;3.93;;;3.53;;
21741;SDS011;11033;47.490;11.116;2023-08-06T03:38:39;5.25;;;3.63;;
21741;SDS011;11033;47.490;11.116;2023-08-06T03:41:04;6.93;;;4.15;;
21741;SDS011;11033;47.490;11.116;2023-08-06T03:43:29;5.93;;;3.63;;
21741;SDS011;11033;47.490;11.116;2023-08-06T03:45:54;6.67;;;4.50;;
21741;SDS011;11033;47.490;11.116;2023-08-06T03:48:20;5.23;;;3.83;;
21741;SDS011;11033;47.490;11.116;2023-08-06T03:50:45;3.83;;;3.50;;
21741;SDS011;11033;47.490;11.116;2023-08-06T03:53:10;3.95;;;3.55;;
21741;SDS011;11033;47.490;11.116;2023-08-06T03:55:36;9.23;;;3.47;;
21741;SDS011;11033;47.490;11.116;2023-08-06T03:58:01;5.50;;;2.90;;
21741;SDS011;11033;47.490;11.116;2023-08-06T04:00:26;3.50;;;3.20;;
21741;SDS011;11033;47.490;11.116;2023-08-06T04:02:51;4.20;;;3.80;;
21741;SDS011;11033;47.490;11.116;2023-08-06T04:05:16;3.30;;;3.00;;
21741;SDS011;11033;47.490;11.116;2023-08-06T04:07:42;5.35;;;3.85;;
21741;SDS011;11033;47.490;11.116;2023-08-06T04:10:07;4.03;;;3.67;;
21741;SDS011;11033;47.490;11.116;2023-08-06T04:12:33;4.47;;;3.28;;
21741;SDS011;11033;47.490;11.116;2023-08-06T04:15:01;3.92;;;2.60;;
21741;SDS011;11033;47.490;11.116;2023-08-06T04:17:26;4.28;;;3.60;;
21741;SDS011;11033;47.490;11.116;2023-08-06T04:19:52;6.37;;;3.20;;
21741;SDS011;11033;47.490;11.116;2023-08-06T04:22:17;3.88;;;3.03;;
21741;SDS011;11033;47.490;11.116;2023-08-06T04:24:43;3.45;;;3.15;;
21741;SDS011;11033;47.490;11.116;2023-08-06T04:27:11;3.70;;;3.30;;
21741;SDS011;11033;47.490;11.116;2023-08-06T04:29:36;4.43;;;3.40;;
21741;SDS011;11033;47.490;11.116;2023-08-06T04:32:02;5.03;;;3.20;;
21741;SDS011;11033;47.490;11.116;2023-08-06T04:34:28;3.10;;;2.90;;
21741;SDS011;11033;47.490;11.116;2023-08-06T04:36:53;4.30;;;3.30;;
21741;SDS011;11033;47.490;11.116;2023-08-06T04:39:18;2.73;;;2.47;;
21741;SDS011;11033;47.490;11.116;2023-08-06T04:41:43;3.70;;;2.90;;
21741;SDS011;11033;47.490;11.116;2023-08-06T04:44:09;3.40;;;3.08;;
21741;SDS011;11033;47.490;11.116;2023-08-06T04:46:34;3.00;;;2.70;;
21741;SDS011;11033;47.490;11.116;2023-08-06T04:48:59;3.60;;;2.90;;
21741;SDS011;11033;47.490;11.116;2023-08-06T04:51:24;4.97;;;3.43;;
21741;SDS011;11033;47.490;11.116;2023-08-06T04:53:49;3.40;;;3.10;;
21741;SDS011;11033;47.490;11.116;2023-08-06T04:56:15;3.47;;;3.07;;
21741;SDS011;11033;47.490;11.116;2023-08-06T04:58:40;5.30;;;3.00;;
21741;SDS011;11033;47.490;11.116;2023-08-06T05:01:05;6.05;;;3.50;;
21741;SDS011;11033;47.490;11.116;2023-08-06T05:03:31;4.67;;;3.63;;
21741;SDS011;11033;47.490;11.116;2023-08-06T05:05:56;4.10;;;3.57;;
21741;SDS011;11033;47.490;11.116;2023-08-06T05:08:21;3.27;;;3.00;;
21741;SDS011;11033;47.490;11.116;2023-08-06T05:10:46;3.90;;;3.30;;
21741;SDS011;11033;47.490;11.116;2023-08-06T05:13:11;3.90;;;3.47;;
21741;SDS011;11033;47.490;11.116;2023-08-06T05:15:37;3.70;;;3.07;;
21741;SDS011;11033;47.490;11.116;2023-08-06T05:18:02;4.05;;;3.08;;
21741;SDS011;11033;47.490;11.116;2023-08-06T05:20:27;3.22;;;2.97;;
21741;SDS011;11033;47.490;11.116;2023-08-06T05:22:53;3.57;;;3.27;;
21741;SDS011;11033;47.490;11.116;2023-08-06T05:25:18;3.13;;;2.93;;
21741;SDS011;11033;47.490;11.116;2023-08-06T05:27:43;3.83;;;3.53;;
21741;SDS011;11033;47.490;11.116;2023-08-06T05:30:08;4.33;;;2.67;;
21741;SDS011;11033;47.490;11.116;2023-08-06T05:32:34;5.35;;;2.80;;
21741;SDS011;11033;47.490;11.116;2023-08-06T05:34:59;3.43;;;2.83;;
21741;SDS011;11033;47.490;11.116;2023-08-06T05:37:24;4.20;;;3.50;;
21741;SDS011;11033;47.490;11.116;2023-08-06T05:39:49;4.30;;;3.00;;
21741;SDS011;11033;47.490;11.116;2023-08-06T05:42:15;3.40;;;3.10;;
21741;SDS011;11033;47.490;11.116;2023-08-06T05:44:40;3.10;;;2.90;;
21741;SDS011;11033;47.490;11.116;2023-08-06T05:47:05;3.80;;;2.70;;
21741;SDS011;11033;47.490;11.116;2023-08-06T05:49:30;3.47;;;2.97;;
21741;SDS011;11033;47.490;11.116;2023-08-06T05:51:55;3.70;;;3.40;;
21741;SDS011;11033;47.490;11.116;2023-08-06T05:54:21;4.07;;;3.00;;
21741;SDS011;11033;47.490;11.116;2023-08-06T05:56:46;3.93;;;3.00;;
21741;SDS011;11033;47.490;11.116;2023-08-06T05:59:11;2.90;;;2.70;;
21741;SDS011;11033;47.490;11.116;2023-08-06T06:01:36;3.70;;;2.50;;
21741;SDS011;11033;47.490;11.116;2023-08-06T06:04:02;2.87;;;2.67;;
21741;SDS011;11033;47.490;11.116;2023-08-06T06:06:27;4.53;;;3.30;;
21741;SDS011;11033;47.490;11.116;2023-08-06T06:08:52;3.37;;;3.07;;
21741;SDS011;11033;47.490;11.116;2023-08-06T06:11:17;3.67;;;3.37;;
21741;SDS011;11033;47.490;11.116;2023-08-06T06:13:46;4.18;;;3.60;;
21741;SDS011;11033;47.490;11.116;2023-08-06T06:16:11;4.50;;;3.90;;
21741;SDS011;11033;47.490;11.116;2023-08-06T06:18:37;3.97;;;3.60;;
21741;SDS011;11033;47.490;11.116;2023-08-06T06:21:02;3.87;;;3.47;;
21741;SDS011;11033;47.490;11.116;2023-08-06T06:23:27;4.87;;;3.70;;
21741;SDS011;11033;47.490;11.116;2023-08-06T06:25:52;6.27;;;3.77;;
21741;SDS011;11033;47.490;11.116;2023-08-06T06:28:18;3.20;;;3.00;;
21741;SDS011;11033;47.490;11.116;2023-08-06T06:30:43;5.72;;;3.58;;
21741;SDS011;11033;47.490;11.116;2023-08-06T06:33:08;3.27;;;2.97;;
21741;SDS011;11033;47.490;11.116;2023-08-06T06:35:33;2.97;;;2.77;;
21741;SDS011;11033;47.490;11.116;2023-08-06T06:37:59;2.83;;;2.63;;
21741;SDS011;11033;47.490;11.116;2023-08-06T06:40:24;2.80;;;2.63;;
21741;SDS011;11033;47.490;11.116;2023-08-06T06:42:50;4.93;;;2.80;;
21741;SDS011;11033;47.490;11.116;2023-08-06T06:45:15;3.53;;;2.90;;
21741;SDS011;11033;47.490;11.116;2023-08-06T06:47:40;5.13;;;2.73;;
21741;SDS011;11033;47.490;11.116;2023-08-06T06:50:05;5.63;;;2.70;;
21741;SDS011;11033;47.490;11.116;2023-08-06T06:52:31;2.83;;;2.63;;
21741;SDS011;11033;47.490;11.116;2023-08-06T06:54:56;3.00;;;2.33;;
21741;SDS011;11033;47.490;11.116;2023-08-06T06:57:21;5.90;;;2.40;;
21741;SDS011;11033;47.490;11.116;2023-08-06T06:59:46;5.00;;;2.80;;
21741;SDS011;11033;47.490;11.116;2023-08-06T07:02:11;2.92;;;2.70;;
21741;SDS011;11033;47.490;11.116;2023-08-06T07:04:36;3.10;;;2.90;;
21741;SDS011;11033;47.490;11.116;2023-08-06T07:07:02;3.83;;;3.00;;
21741;SDS011;11033;47.490;11.116;2023-08-06T07:09:27;3.05;;;2.85;;
21741;SDS011;11033;47.490;11.116;2023-08-06T07:11:52;4.13;;;3.00;;
21741;SDS011;11033;47.490;11.116;2023-08-06T07:14:17;2.60;;;2.40;;
21741;SDS011;11033;47.490;11.116;2023-08-06T07:16:42;3.03;;;2.77;;
21741;SDS011;11033;47.490;11.116;2023-08-06T07:19:07;3.63;;;3.17;;
21741;SDS011;11033;47.490;11.116;2023-08-06T07:21:33;3.20;;;3.00;;
21741;SDS011;11033;47.490;11.116;2023-08-06T07:23:58;3.00;;;2.80;;
21741;SDS011;11033;47.490;11.116;2023-08-06T07:26:24;3.17;;;2.88;;
21741;SDS011;11033;47.490;11.116;2023-08-06T07:28:49;3.40;;;3.20;;
21741;SDS011;11033;47.490;11.116;2023-08-06T07:31:14;3.40;;;3.20;;
21741;SDS011;11033;47.490;11.116;2023-08-06T07:33:40;3.63;;;3.40;;
21741;SDS011;11033;47.490;11.116;2023-08-06T07:36:12;3.53;;;3.23;;
21741;SDS011;11033;47.490;11.116;2023-08-06T07:38:37;3.90;;;3.60;;
21741;SDS011;11033;47.490;11.116;2023-08-06T07:41:03;4.57;;;4.18;;
21741;SDS011;11033;47.490;11.116;2023-08-06T07:43:28;4.78;;;4.38;;
21741;SDS011;11033;47.490;11.116;2023-08-06T07:45:53;4.30;;;4.00;;
21741;SDS011;11033;47.490;11.116;2023-08-06T07:48:18;5.17;;;4.17;;
21741;SDS011;11033;47.490;11.116;2023-08-06T07:50:43;3.90;;;3.70;;
21741;SDS011;11033;47.490;11.116;2023-08-06T07:53:15;4.03;;;3.63;;
21741;SDS011;11033;47.490;11.116;2023-08-06T07:55:40;4.70;;;4.30;;
21741;SDS011;11033;47.490;11.116;2023-08-06T07:58:05;4.53;;;4.20;;
21741;SDS011;11033;47.490;11.116;2023-08-06T08:00:30;6.57;;;4.10;;
21741;SDS011;11033;47.490;11.116;2023-08-06T08:02:55;4.97;;;4.57;;
21741;SDS011;11033;47.490;11.116;2023-08-06T08:05:21;4.90;;;4.50;;
21741;SDS011;11033;47.490;11.116;2023-08-06T08:07:46;5.17;;;4.67;;
21741;SDS011;11033;47.490;11.116;2023-08-06T08:10:11;4.83;;;4.53;;
21741;SDS011;11033;47.490;11.116;2023-08-06T08:12:36;4.27;;;3.97;;
21741;SDS011;11033;47.490;11.116;2023-08-06T08:15:01;8.73;;;5.10;;
21741;SDS011;11033;47.490;11.116;2023-08-06T08:17:27;6.73;;;4.43;;
21741;SDS011;11033;47.490;11.116;2023-08-06T08:19:52;6.33;;;4.10;;
21741;SDS011;11033;47.490;11.116;2023-08-06T08:22:17;6.80;;;4.72;;
21741;SDS011;11033;47.490;11.116;2023-08-06T08:24:42;5.27;;;4.80;;
21741;SDS011;11033;47.490;11.116;2023-08-06T08:27:07;4.20;;;3.90;;
21741;SDS011;11033;47.490;11.116;2023-08-06T08:29:33;5.37;;;4.87;;
21741;SDS011;11033;47.490;11.116;2023-08-06T08:31:58;6.30;;;5.57;;
21741;SDS011;11033;47.490;11.116;2023-08-06T08:34:23;6.00;;;5.60;;
21741;SDS011;11033;47.490;11.116;2023-08-06T08:36:48;5.97;;;5.30;;
21741;SDS011;11033;47.490;11.116;2023-08-06T08:39:14;6.03;;;5.53;;
21741;SDS011;11033;47.490;11.116;2023-08-06T08:41:40;7.07;;;6.47;;
21741;SDS011;11033;47.490;11.116;2023-08-06T08:44:07;6.20;;;5.80;;
21741;SDS011;11033;47.490;11.116;2023-08-06T08:46:33;6.20;;;5.65;;
21741;SDS011;11033;47.490;11.116;2023-08-06T08:49:00;5.70;;;5.30;;
21741;SDS011;11033;47.490;11.116;2023-08-06T08:51:28;6.40;;;5.97;;
21741;SDS011;11033;47.490;11.116;2023-08-06T08:53:54;6.55;;;6.00;;
21741;SDS011;11033;47.490;11.116;2023-08-06T08:56:21;6.80;;;6.30;;
21741;SDS011;11033;47.490;11.116;2023-08-06T08:58:46;6.10;;;5.70;;
21741;SDS011;11033;47.490;11.116;2023-08-06T09:01:12;5.82;;;5.40;;
21741;SDS011;11033;47.490;11.116;2023-08-06T09:03:37;5.55;;;5.13;;
21741;SDS011;11033;47.490;11.116;2023-08-06T09:06:04;6.30;;;5.90;;
21741;SDS011;11033;47.490;11.116;2023-08-06T09:08:31;5.93;;;5.40;;
21741;SDS011;11033;47.490;11.116;2023-08-06T09:10:58;6.07;;;5.78;;
21741;SDS011;11033;47.490;11.116;2023-08-06T09:13:25;6.65;;;6.28;;
21741;SDS011;11033;47.490;11.116;2023-08-06T09:15:50;6.32;;;6.03;;
21741;SDS011;11033;47.490;11.116;2023-08-06T09:18:24;7.37;;;7.00;;
21741;SDS011;11033;47.490;11.116;2023-08-06T09:20:49;7.00;;;6.47;;
21741;SDS011;11033;47.490;11.116;2023-08-06T09:23:15;6.70;;;6.35;;
21741;SDS011;11033;47.490;11.116;2023-08-06T09:25:40;7.20;;;6.90;;
21741;SDS011;11033;47.490;11.116;2023-08-06T09:28:08;6.88;;;6.57;;
21741;SDS011;11033;47.490;11.116;2023-08-06T09:30:34;7.63;;;7.23;;
21741;SDS011;11033;47.490;11.116;2023-08-06T09:32:59;7.25;;;6.95;;
21741;SDS011;11033;47.490;11.116;2023-08-06T09:35:29;8.43;;;7.85;;
21741;SDS011;11033;47.490;11.116;2023-08-06T09:37:55;7.22;;;6.93;;
21741;SDS011;11033;47.490;11.116;2023-08-06T09:40:24;7.53;;;7.22;;
21741;SDS011;11033;47.490;11.116;2023-08-06T09:42:49;7.72;;;7.40;;
21741;SDS011;11033;47.490;11.116;2023-08-06T09:45:15;8.15;;;7.75;;
21741;SDS011;11033;47.490;11.116;2023-08-06T09:47:41;7.57;;;7.27;;
21741;SDS011;11033;47.490;11.116;2023-08-06T09:50:06;6.93;;;6.70;;
21741;SDS011;11033;47.490;11.116;2023-08-06T09:52:39;7.68;;;7.20;;
21741;SDS011;11033;47.490;11.116;2023-08-06T09:55:05;7.93;;;7.43;;
21741;SDS011;11033;47.490;11.116;2023-08-06T09:57:30;7.50;;;7.13;;
21741;SDS011;11033;47.490;11.116;2023-08-06T09:59:56;8.13;;;7.60;;
21741;SDS011;11033;47.490;11.116;2023-08-06T10:02:21;7.75;;;7.38;;
21741;SDS011;11033;47.490;11.116;2023-08-06T10:04:49;7.93;;;7.53;;
21741;SDS011;11033;47.490;11.116;2023-08-06T10:07:14;7.15;;;6.85;;
21741;SDS011;11033;47.490;11.116;2023-08-06T10:09:41;7.85;;;7.45;;
21741;SDS011;11033;47.490;11.116;2023-08-06T10:12:06;8.07;;;7.73;;
21741;SDS011;11033;47.490;11.116;2023-08-06T10:14:32;8.20;;;7.80;;
21741;SDS011;11033;47.490;11.116;2023-08-06T10:16:58;8.05;;;7.65;;
21741;SDS011;11033;47.490;11.116;2023-08-06T10:19:24;8.55;;;8.15;;
21741;SDS011;11033;47.490;11.116;2023-08-06T10:24:50;8.20;;;7.80;;
21741;SDS011;11033;47.490;11.116;2023-08-06T10:32:52;8.10;;;7.70;;
21741;SDS011;11033;47.490;11.116;2023-08-06T10:35:36;8.80;;;8.40;;
21741;SDS011;11033;47.490;11.116;2023-08-06T10:38:09;8.60;;;8.20;;
21741;SDS011;11033;47.490;11.116;2023-08-06T10:40:35;7.72;;;7.43;;
21741;SDS011;11033;47.490;11.116;2023-08-06T10:43:04;9.00;;;8.50;;
21741;SDS011;11033;47.490;11.116;2023-08-06T10:45:33;8.20;;;7.90;;
21741;SDS011;11033;47.490;11.116;2023-08-06T10:47:59;9.23;;;8.82;;
21741;SDS011;11033;47.490;11.116;2023-08-06T10:50:24;9.13;;;8.73;;
21741;SDS011;11033;47.490;11.116;2023-08-06T10:52:50;8.82;;;8.43;;
21741;SDS011;11033;47.490;11.116;2023-08-06T10:55:25;8.68;;;8.27;;
21741;SDS011;11033;47.490;11.116;2023-08-06T10:57:51;8.18;;;7.88;;
21741;SDS011;11033;47.490;11.116;2023-08-06T11:00:16;8.48;;;8.18;;
21741;SDS011;11033;47.490;11.116;2023-08-06T11:02:41;8.43;;;8.13;;
21741;SDS011;11033;47.490;11.116;2023-08-06T11:05:07;8.90;;;8.50;;
21741;SDS011;11033;47.490;11.116;2023-08-06T11:07:32;8.93;;;8.30;;
21741;SDS011;11033;47.490;11.116;2023-08-06T11:10:08;9.18;;;8.77;;
21741;SDS011;11033;47.490;11.116;2023-08-06T11:12:33;9.15;;;8.65;;
21741;SDS011;11033;47.490;11.116;2023-08-06T11:14:59;9.70;;;9.30;;
21741;SDS011;11033;47.490;11.116;2023-08-06T11:17:24;9.13;;;8.82;;
21741;SDS011;11033;47.490;11.116;2023-08-06T11:19:50;8.95;;;8.65;;
21741;SDS011;11033;47.490;11.116;2023-08-06T11:22:15;8.30;;;7.93;;
21741;SDS011;11033;47.490;11.116;2023-08-06T11:24:41;8.48;;;8.18;;
21741;SDS011;11033;47.490;11.116;2023-08-06T11:27:13;8.33;;;8.03;;
21741;SDS011;11033;47.490;11.116;2023-08-06T11:29:38;8.15;;;7.85;;
21741;SDS011;11033;47.490;11.116;2023-08-06T11:32:06;7.60;;;7.30;;
21741;SDS011;11033;47.490;11.116;2023-08-06T11:34:32;7.93;;;7.63;;
21741;SDS011;11033;47.490;11.116;2023-08-06T11:36:57;7.87;;;7.57;;
21741;SDS011;11033;47.490;11.116;2023-08-06T11:39:22;8.10;;;7.80;;
21741;SDS011;11033;47.490;11.116;2023-08-06T11:41:47;7.82;;;7.53;;
21741;SDS011;11033;47.490;11.116;2023-08-06T11:44:13;8.10;;;7.80;;
21741;SDS011;11033;47.490;11.116;2023-08-06T11:46:54;7.78;;;7.47;;
21741;SDS011;11033;47.490;11.116;2023-08-06T11:52:10;8.50;;;8.20;;
21741;SDS011;11033;47.490;11.116;2023-08-06T11:54:36;8.02;;;7.72;;
21741;SDS011;11033;47.490;11.116;2023-08-06T11:57:02;8.50;;;8.20;;
21741;SDS011;11033;47.490;11.116;2023-08-06T11:59:27;8.45;;;8.15;;
21741;SDS011;11033;47.490;11.116;2023-08-06T12:01:52;8.70;;;8.35;;
21741;SDS011;11033;47.490;11.116;2023-08-06T12:04:18;9.00;;;8.60;;
21741;SDS011;11033;47.490;11.116;2023-08-06T12:06:43;8.57;;;8.27;;
21741;SDS011;11033;47.490;11.116;2023-08-06T12:09:08;9.02;;;8.63;;
21741;SDS011;11033;47.490;11.116;2023-08-06T12:11:35;8.48;;;8.18;;
21741;SDS011;11033;47.490;11.116;2023-08-06T12:14:00;8.80;;;8.50;;
21741;SDS011;11033;47.490;11.116;2023-08-06T12:16:25;8.33;;;8.03;;
21741;SDS011;11033;47.490;11.116;2023-08-06T12:18:50;8.52;;;8.23;;
21741;SDS011;11033;47.490;11.116;2023-08-06T12:21:16;8.60;;;8.30;;
21741;SDS011;11033;47.490;11.116;2023-08-06T12:23:41;7.90;;;7.60;;
21741;SDS011;11033;47.490;11.116;2023-08-06T12:26:07;8.43;;;8.13;;
21741;SDS011;11033;47.490;11.116;2023-08-06T12:28:32;7.53;;;7.23;;
21741;SDS011;11033;47.490;11.116;2023-08-06T12:30:57;8.00;;;7.70;;
21741;SDS011;11033;47.490;11.116;2023-08-06T12:33:22;8.67;;;8.37;;
21741;SDS011;11033;47.490;11.116;2023-08-06T12:35:47;8.47;;;8.17;;
21741;SDS011;11033;47.490;11.116;2023-08-06T12:38:13;8.40;;;8.10;;
21741;SDS011;11033;47.490;11.116;2023-08-06T12:40:38;8.07;;;7.78;;
21741;SDS011;11033;47.490;11.116;2023-08-06T12:43:03;7.77;;;7.47;;
21741;SDS011;11033;47.490;11.116;2023-08-06T12:45:29;7.77;;;7.47;;
21741;SDS011;11033;47.490;11.116;2023-08-06T12:47:54;7.97;;;7.67;;
21741;SDS011;11033;47.490;11.116;2023-08-06T12:50:19;6.97;;;6.77;;
21741;SDS011;11033;47.490;11.116;2023-08-06T12:52:44;8.03;;;7.73;;
21741;SDS011;11033;47.490;11.116;2023-08-06T12:55:10;7.63;;;7.32;;
21741;SDS011;11033;47.490;11.116;2023-08-06T12:57:35;8.13;;;7.57;;
21741;SDS011;11033;47.490;11.116;2023-08-06T13:00:00;7.23;;;7.00;;
21741;SDS011;11033;47.490;11.116;2023-08-06T13:02:25;7.40;;;7.10;;
21741;SDS011;11033;47.490;11.116;2023-08-06T13:04:54;7.60;;;7.30;;
21741;SDS011;11033;47.490;11.116;2023-08-06T13:07:19;7.53;;;7.33;;
21741;SDS011;11033;47.490;11.116;2023-08-06T13:09:45;7.77;;;7.47;;
21741;SDS011;11033;47.490;11.116;2023-08-06T13:12:10;8.17;;;7.87;;
21741;SDS011;11033;47.490;11.116;2023-08-06T13:14:35;8.67;;;8.37;;
21741;SDS011;11033;47.490;11.116;2023-08-06T13:17:00;8.57;;;8.27;;
21741;SDS011;11033;47.490;11.116;2023-08-06T13:19:25;8.93;;;8.63;;
21741;SDS011;11033;47.490;11.116;2023-08-06T13:24:16;10.83;;;10.43;;
21741;SDS011;11033;47.490;11.116;2023-08-06T13:26:41;10.93;;;10.33;;
21741;SDS011;11033;47.490;11.116;2023-08-06T13:29:06;10.40;;;10.00;;
21741;SDS011;11033;47.490;11.116;2023-08-06T13:31:35;11.52;;;11.13;;
21741;SDS011;11033;47.490;11.116;2023-08-06T13:34:00;11.75;;;11.35;;
21741;SDS011;11033;47.490;11.116;2023-08-06T13:36:25;10.37;;;9.97;;
21741;SDS011;11033;47.490;11.116;2023-08-06T13:38:51;10.23;;;9.85;;
21741;SDS011;11033;47.490;11.116;2023-08-06T13:41:16;9.00;;;8.70;;
21741;SDS011;11033;47.490;11.116;2023-08-06T13:43:42;9.37;;;9.07;;
21741;SDS011;11033;47.490;11.116;2023-08-06T13:46:07;9.73;;;9.43;;
21741;SDS011;11033;47.490;11.116;2023-08-06T13:48:32;9.07;;;8.77;;
21741;SDS011;11033;47.490;11.116;2023-08-06T13:50:57;8.40;;;8.10;;
21741;SDS011;11033;47.490;11.116;2023-08-06T13:53:23;8.43;;;8.13;;
21741;SDS011;11033;47.490;11.116;2023-08-06T13:55:48;9.07;;;8.77;;
21741;SDS011;11033;47.490;11.116;2023-08-06T13:58:13;8.43;;;8.13;;
21741;SDS011;11033;47.490;11.116;2023-08-06T14:00:38;10.80;;;10.40;;
21741;SDS011;11033;47.490;11.116;2023-08-06T14:03:03;10.47;;;10.07;;
21741;SDS011;11033;47.490;11.116;2023-08-06T14:05:28;10.43;;;10.03;;
21741;SDS011;11033;47.490;11.116;2023-08-06T14:07:54;11.17;;;10.77;;
21741;SDS011;11033;47.490;11.116;2023-08-06T14:10:19;10.88;;;10.48;;
21741;SDS011;11033;47.490;11.116;2023-08-06T14:12:44;10.33;;;9.93;;
21741;SDS011;11033;47.490;11.116;2023-08-06T14:15:10;12.65;;;12.15;;
21741;SDS011;11033;47.490;11.116;2023-08-06T14:17:35;10.50;;;10.10;;
21741;SDS011;11033;47.490;11.116;2023-08-06T14:20:01;10.57;;;10.17;;
21741;SDS011;11033;47.490;11.116;2023-08-06T14:22:28;10.45;;;9.95;;
21741;SDS011;11033;47.490;11.116;2023-08-06T14:24:55;11.65;;;11.23;;
21741;SDS011;11033;47.490;11.116;2023-08-06T14:27:21;10.52;;;10.13;;
21741;SDS011;11033;47.490;11.116;2023-08-06T14:29:46;9.93;;;9.53;;
21741;SDS011;11033;47.490;11.116;2023-08-06T14:32:11;9.23;;;8.93;;
21741;SDS011;11033;47.490;11.116;2023-08-06T14:34:36;8.50;;;8.20;;
21741;SDS011;11033;47.490;11.116;2023-08-06T14:37:02;8.80;;;8.50;;
21741;SDS011;11033;47.490;11.116;2023-08-06T14:39:27;9.33;;;8.93;;
21741;SDS011;11033;47.490;11.116;2023-08-06T14:41:52;10.00;;;9.60;;
21741;SDS011;11033;47.490;11.116;2023-08-06T14:44:17;9.47;;;9.17;;